sensor_id;sensor_type;location;lat;lon;timestamp;P1;durP1;ratioP1;P2;durP2;ratioP2
28028;SDS011;15345;59.364;18.016;2024-01-30T00:00:20;52.95;;;17.80;;
28028;SDS011;15345;59.364;18.016;2024-01-30T00:01:39;46.95;;;17.48;;
28028;SDS011;15345;59.364;18.016;2024-01-30T00:02:58;51.72;;;16.80;;
28028;SDS011;15345;59.364;18.016;2024-01-30T00:04:17;47.28;;;16.67;;
28028;SDS011;15345;59.364;18.016;2024-01-30T00:05:36;55.03;;;18.00;;
28028;SDS011;15345;59.364;18.016;2024-01-30T00:06:55;51.63;;;17.08;;
28028;SDS011;15345;59.364;18.016;2024-01-30T00:08:14;46.75;;;17.50;;
28028;SDS011;15345;59.364;18.016;2024-01-30T00:09:32;50.35;;;18.35;;
28028;SDS011;15345;59.364;18.016;2024-01-30T00:10:51;45.42;;;16.90;;
28028;SDS011;15345;59.364;18.016;2024-01-30T00:12:10;54.13;;;17.23;;
28028;SDS011;15345;59.364;18.016;2024-01-30T00:13:30;57.42;;;17.85;;
28028;SDS011;15345;59.364;18.016;2024-01-30T00:14:49;64.75;;;18.30;;
28028;SDS011;15345;59.364;18.016;2024-01-30T00:16:19;54.42;;;17.58;;
28028;SDS011;15345;59.364;18.016;2024-01-30T00:17:38;58.95;;;17.98;;
28028;SDS011;15345;59.364;18.016;2024-01-30T00:18:57;53.67;;;18.00;;
28028;SDS011;15345;59.364;18.016;2024-01-30T00:20:16;53.55;;;18.17;;
28028;SDS011;15345;59.364;18.016;2024-01-30T00:21:35;56.65;;;19.00;;
28028;SDS011;15345;59.364;18.016;2024-01-30T00:22:54;55.75;;;18.20;;
28028;SDS011;15345;59.364;18.016;2024-01-30T00:24:13;60.17;;;18.33;;
28028;SDS011;15345;59.364;18.016;2024-01-30T00:25:32;42.25;;;18.15;;
28028;SDS011;15345;59.364;18.016;2024-01-30T00:26:52;51.13;;;18.27;;
28028;SDS011;15345;59.364;18.016;2024-01-30T00:28:11;50.35;;;17.40;;
28028;SDS011;15345;59.364;18.016;2024-01-30T00:29:30;55.92;;;17.50;;
28028;SDS011;15345;59.364;18.016;2024-01-30T00:30:52;59.75;;;18.42;;
28028;SDS011;15345;59.364;18.016;2024-01-30T00:32:10;52.45;;;19.05;;
28028;SDS011;15345;59.364;18.016;2024-01-30T00:33:29;48.55;;;16.48;;
28028;SDS011;15345;59.364;18.016;2024-01-30T00:34:48;57.75;;;19.45;;
28028;SDS011;15345;59.364;18.016;2024-01-30T00:36:07;59.58;;;18.75;;
28028;SDS011;15345;59.364;18.016;2024-01-30T00:37:27;58.22;;;17.02;;
28028;SDS011;15345;59.364;18.016;2024-01-30T00:38:46;60.17;;;18.48;;
28028;SDS011;15345;59.364;18.016;2024-01-30T00:40:05;48.97;;;17.80;;
28028;SDS011;15345;59.364;18.016;2024-01-30T00:41:24;44.92;;;16.55;;
28028;SDS011;15345;59.364;18.016;2024-01-30T00:42:44;46.63;;;17.23;;
28028;SDS011;15345;59.364;18.016;2024-01-30T00:44:03;52.33;;;17.92;;
28028;SDS011;15345;59.364;18.016;2024-01-30T00:45:21;47.90;;;15.90;;
28028;SDS011;15345;59.364;18.016;2024-01-30T00:46:41;57.95;;;16.92;;
28028;SDS011;15345;59.364;18.016;2024-01-30T00:47:59;52.03;;;17.63;;
28028;SDS011;15345;59.364;18.016;2024-01-30T00:49:18;50.30;;;17.27;;
28028;SDS011;15345;59.364;18.016;2024-01-30T00:50:37;54.55;;;18.27;;
28028;SDS011;15345;59.364;18.016;2024-01-30T00:51:56;56.35;;;18.45;;
28028;SDS011;15345;59.364;18.016;2024-01-30T00:53:15;58.47;;;19.50;;
28028;SDS011;15345;59.364;18.016;2024-01-30T00:54:34;53.92;;;18.17;;
28028;SDS011;15345;59.364;18.016;2024-01-30T00:55:53;53.58;;;18.88;;
28028;SDS011;15345;59.364;18.016;2024-01-30T00:57:11;55.45;;;19.90;;
28028;SDS011;15345;59.364;18.016;2024-01-30T00:58:30;57.83;;;19.17;;
28028;SDS011;15345;59.364;18.016;2024-01-30T00:59:50;57.83;;;19.38;;
28028;SDS011;15345;59.364;18.016;2024-01-30T01:01:09;53.10;;;20.30;;
28028;SDS011;15345;59.364;18.016;2024-01-30T01:02:28;59.45;;;19.30;;
28028;SDS011;15345;59.364;18.016;2024-01-30T01:03:47;54.97;;;18.40;;
28028;SDS011;15345;59.364;18.016;2024-01-30T01:05:06;55.10;;;17.65;;
28028;SDS011;15345;59.364;18.016;2024-01-30T01:06:26;49.92;;;19.98;;
28028;SDS011;15345;59.364;18.016;2024-01-30T01:07:45;46.30;;;16.90;;
28028;SDS011;15345;59.364;18.016;2024-01-30T01:09:06;62.80;;;19.20;;
28028;SDS011;15345;59.364;18.016;2024-01-30T01:10:25;63.10;;;19.50;;
28028;SDS011;15345;59.364;18.016;2024-01-30T01:11:44;51.40;;;19.10;;
28028;SDS011;15345;59.364;18.016;2024-01-30T01:13:03;57.80;;;18.77;;
28028;SDS011;15345;59.364;18.016;2024-01-30T01:14:22;65.13;;;19.40;;
28028;SDS011;15345;59.364;18.016;2024-01-30T01:15:41;57.10;;;19.17;;
28028;SDS011;15345;59.364;18.016;2024-01-30T01:17:00;53.58;;;18.80;;
28028;SDS011;15345;59.364;18.016;2024-01-30T01:18:19;59.22;;;18.00;;
28028;SDS011;15345;59.364;18.016;2024-01-30T01:19:38;61.80;;;20.05;;
28028;SDS011;15345;59.364;18.016;2024-01-30T01:20:57;61.15;;;19.85;;
28028;SDS011;15345;59.364;18.016;2024-01-30T01:22:19;64.38;;;19.92;;
28028;SDS011;15345;59.364;18.016;2024-01-30T01:23:38;51.65;;;19.52;;
28028;SDS011;15345;59.364;18.016;2024-01-30T01:24:57;59.08;;;18.48;;
28028;SDS011;15345;59.364;18.016;2024-01-30T01:26:16;61.40;;;18.50;;
28028;SDS011;15345;59.364;18.016;2024-01-30T01:27:35;57.30;;;18.98;;
28028;SDS011;15345;59.364;18.016;2024-01-30T01:28:59;55.45;;;18.98;;
28028;SDS011;15345;59.364;18.016;2024-01-30T01:30:18;76.15;;;18.77;;
28028;SDS011;15345;59.364;18.016;2024-01-30T01:31:41;69.38;;;20.33;;
28028;SDS011;15345;59.364;18.016;2024-01-30T01:33:03;65.22;;;21.23;;
28028;SDS011;15345;59.364;18.016;2024-01-30T01:34:22;59.55;;;19.90;;
28028;SDS011;15345;59.364;18.016;2024-01-30T01:35:42;64.35;;;20.35;;
28028;SDS011;15345;59.364;18.016;2024-01-30T01:37:01;54.40;;;19.17;;
28028;SDS011;15345;59.364;18.016;2024-01-30T01:38:20;63.15;;;20.27;;
28028;SDS011;15345;59.364;18.016;2024-01-30T01:39:39;65.03;;;19.77;;
28028;SDS011;15345;59.364;18.016;2024-01-30T01:40:58;58.90;;;20.63;;
28028;SDS011;15345;59.364;18.016;2024-01-30T01:42:17;65.22;;;19.98;;
28028;SDS011;15345;59.364;18.016;2024-01-30T01:43:36;82.05;;;21.52;;
28028;SDS011;15345;59.364;18.016;2024-01-30T01:44:56;61.03;;;20.00;;
28028;SDS011;15345;59.364;18.016;2024-01-30T01:46:15;66.82;;;18.85;;
28028;SDS011;15345;59.364;18.016;2024-01-30T01:47:34;52.65;;;18.65;;
28028;SDS011;15345;59.364;18.016;2024-01-30T01:48:54;59.55;;;19.27;;
28028;SDS011;15345;59.364;18.016;2024-01-30T01:50:14;66.32;;;19.83;;
28028;SDS011;15345;59.364;18.016;2024-01-30T01:51:34;74.00;;;20.70;;
28028;SDS011;15345;59.364;18.016;2024-01-30T01:52:54;67.93;;;21.30;;
28028;SDS011;15345;59.364;18.016;2024-01-30T01:54:13;58.00;;;19.30;;
28028;SDS011;15345;59.364;18.016;2024-01-30T01:55:33;61.20;;;19.90;;
28028;SDS011;15345;59.364;18.016;2024-01-30T01:56:52;77.22;;;21.23;;
28028;SDS011;15345;59.364;18.016;2024-01-30T01:58:12;59.67;;;20.70;;
28028;SDS011;15345;59.364;18.016;2024-01-30T01:59:31;62.60;;;20.40;;
28028;SDS011;15345;59.364;18.016;2024-01-30T02:00:50;56.55;;;20.00;;
28028;SDS011;15345;59.364;18.016;2024-01-30T02:02:10;59.85;;;18.52;;
28028;SDS011;15345;59.364;18.016;2024-01-30T02:03:30;57.17;;;19.52;;
28028;SDS011;15345;59.364;18.016;2024-01-30T02:04:49;66.47;;;19.70;;
28028;SDS011;15345;59.364;18.016;2024-01-30T02:06:08;69.45;;;20.25;;
28028;SDS011;15345;59.364;18.016;2024-01-30T02:07:28;59.85;;;19.63;;
28028;SDS011;15345;59.364;18.016;2024-01-30T02:08:47;59.78;;;19.15;;
28028;SDS011;15345;59.364;18.016;2024-01-30T02:10:07;64.00;;;20.00;;
28028;SDS011;15345;59.364;18.016;2024-01-30T02:11:26;97.22;;;21.60;;
28028;SDS011;15345;59.364;18.016;2024-01-30T02:12:48;76.55;;;20.98;;
28028;SDS011;15345;59.364;18.016;2024-01-30T02:14:07;103.07;;;21.30;;
28028;SDS011;15345;59.364;18.016;2024-01-30T02:15:26;124.07;;;21.15;;
28028;SDS011;15345;59.364;18.016;2024-01-30T02:16:45;194.27;;;23.15;;
28028;SDS011;15345;59.364;18.016;2024-01-30T02:18:04;130.05;;;21.35;;
28028;SDS011;15345;59.364;18.016;2024-01-30T02:19:23;274.92;;;29.35;;
28028;SDS011;15345;59.364;18.016;2024-01-30T02:20:42;191.05;;;25.98;;
28028;SDS011;15345;59.364;18.016;2024-01-30T02:22:02;91.13;;;21.25;;
28028;SDS011;15345;59.364;18.016;2024-01-30T02:23:22;115.07;;;22.13;;
28028;SDS011;15345;59.364;18.016;2024-01-30T02:24:43;115.78;;;22.95;;
28028;SDS011;15345;59.364;18.016;2024-01-30T02:26:01;159.25;;;22.48;;
28028;SDS011;15345;59.364;18.016;2024-01-30T02:27:20;94.25;;;22.73;;
28028;SDS011;15345;59.364;18.016;2024-01-30T02:28:39;255.75;;;28.65;;
28028;SDS011;15345;59.364;18.016;2024-01-30T02:29:58;350.17;;;33.75;;
28028;SDS011;15345;59.364;18.016;2024-01-30T02:31:18;266.45;;;29.38;;
28028;SDS011;15345;59.364;18.016;2024-01-30T02:32:37;96.43;;;21.05;;
28028;SDS011;15345;59.364;18.016;2024-01-30T02:33:56;134.07;;;21.58;;
28028;SDS011;15345;59.364;18.016;2024-01-30T02:35:15;202.73;;;25.35;;
28028;SDS011;15345;59.364;18.016;2024-01-30T02:36:34;222.35;;;26.05;;
28028;SDS011;15345;59.364;18.016;2024-01-30T02:37:53;243.32;;;28.38;;
28028;SDS011;15345;59.364;18.016;2024-01-30T02:39:12;184.63;;;23.15;;
28028;SDS011;15345;59.364;18.016;2024-01-30T02:40:31;118.65;;;21.75;;
28028;SDS011;15345;59.364;18.016;2024-01-30T02:41:50;158.02;;;22.40;;
28028;SDS011;15345;59.364;18.016;2024-01-30T02:43:09;167.23;;;24.45;;
28028;SDS011;15345;59.364;18.016;2024-01-30T02:44:28;168.70;;;23.10;;
28028;SDS011;15345;59.364;18.016;2024-01-30T02:45:47;177.18;;;22.80;;
28028;SDS011;15345;59.364;18.016;2024-01-30T02:47:06;122.47;;;22.10;;
28028;SDS011;15345;59.364;18.016;2024-01-30T02:48:25;139.73;;;19.63;;
28028;SDS011;15345;59.364;18.016;2024-01-30T02:49:44;277.52;;;27.55;;
28028;SDS011;15345;59.364;18.016;2024-01-30T02:51:03;116.68;;;20.52;;
28028;SDS011;15345;59.364;18.016;2024-01-30T02:52:22;152.25;;;20.30;;
28028;SDS011;15345;59.364;18.016;2024-01-30T02:53:41;153.77;;;22.52;;
28028;SDS011;15345;59.364;18.016;2024-01-30T02:55:01;98.55;;;17.45;;
28028;SDS011;15345;59.364;18.016;2024-01-30T02:56:21;259.02;;;26.83;;
28028;SDS011;15345;59.364;18.016;2024-01-30T02:57:40;200.75;;;22.23;;
28028;SDS011;15345;59.364;18.016;2024-01-30T02:58:59;170.23;;;21.65;;
28028;SDS011;15345;59.364;18.016;2024-01-30T03:00:19;278.85;;;28.67;;
28028;SDS011;15345;59.364;18.016;2024-01-30T03:01:44;198.70;;;24.73;;
28028;SDS011;15345;59.364;18.016;2024-01-30T03:03:03;190.13;;;23.35;;
28028;SDS011;15345;59.364;18.016;2024-01-30T03:04:22;207.80;;;22.92;;
28028;SDS011;15345;59.364;18.016;2024-01-30T03:05:41;210.75;;;24.05;;
28028;SDS011;15345;59.364;18.016;2024-01-30T03:07:00;283.60;;;30.40;;
28028;SDS011;15345;59.364;18.016;2024-01-30T03:08:19;212.73;;;25.85;;
28028;SDS011;15345;59.364;18.016;2024-01-30T03:09:39;230.13;;;26.20;;
28028;SDS011;15345;59.364;18.016;2024-01-30T03:11:00;213.57;;;24.45;;
28028;SDS011;15345;59.364;18.016;2024-01-30T03:12:18;145.38;;;21.15;;
28028;SDS011;15345;59.364;18.016;2024-01-30T03:13:37;407.60;;;35.67;;
28028;SDS011;15345;59.364;18.016;2024-01-30T03:14:56;260.83;;;27.48;;
28028;SDS011;15345;59.364;18.016;2024-01-30T03:16:15;295.52;;;31.10;;
28028;SDS011;15345;59.364;18.016;2024-01-30T03:17:35;354.25;;;33.97;;
28028;SDS011;15345;59.364;18.016;2024-01-30T03:18:55;159.13;;;22.02;;
28028;SDS011;15345;59.364;18.016;2024-01-30T03:20:14;163.95;;;20.80;;
28028;SDS011;15345;59.364;18.016;2024-01-30T03:21:33;205.00;;;24.33;;
28028;SDS011;15345;59.364;18.016;2024-01-30T03:22:53;147.70;;;21.80;;
28028;SDS011;15345;59.364;18.016;2024-01-30T03:24:12;205.23;;;22.65;;
28028;SDS011;15345;59.364;18.016;2024-01-30T03:25:31;143.70;;;20.02;;
28028;SDS011;15345;59.364;18.016;2024-01-30T03:26:50;283.90;;;28.70;;
28028;SDS011;15345;59.364;18.016;2024-01-30T03:28:09;147.00;;;20.73;;
28028;SDS011;15345;59.364;18.016;2024-01-30T03:29:28;289.48;;;26.30;;
28028;SDS011;15345;59.364;18.016;2024-01-30T03:30:47;258.48;;;26.58;;
28028;SDS011;15345;59.364;18.016;2024-01-30T03:32:06;187.75;;;22.17;;
28028;SDS011;15345;59.364;18.016;2024-01-30T03:33:25;151.35;;;20.25;;
28028;SDS011;15345;59.364;18.016;2024-01-30T03:34:46;323.23;;;26.30;;
28028;SDS011;15345;59.364;18.016;2024-01-30T03:36:05;263.77;;;25.65;;
28028;SDS011;15345;59.364;18.016;2024-01-30T03:37:24;401.92;;;32.42;;
28028;SDS011;15345;59.364;18.016;2024-01-30T03:38:43;154.52;;;21.38;;
28028;SDS011;15345;59.364;18.016;2024-01-30T03:40:02;95.35;;;17.33;;
28028;SDS011;15345;59.364;18.016;2024-01-30T03:41:23;87.40;;;18.02;;
28028;SDS011;15345;59.364;18.016;2024-01-30T03:42:42;462.77;;;34.63;;
28028;SDS011;15345;59.364;18.016;2024-01-30T03:44:01;226.95;;;24.23;;
28028;SDS011;15345;59.364;18.016;2024-01-30T03:45:20;472.73;;;35.95;;
28028;SDS011;15345;59.364;18.016;2024-01-30T03:46:39;176.13;;;22.35;;
28028;SDS011;15345;59.364;18.016;2024-01-30T03:47:57;210.88;;;23.60;;
28028;SDS011;15345;59.364;18.016;2024-01-30T03:49:16;192.50;;;20.00;;
28028;SDS011;15345;59.364;18.016;2024-01-30T03:50:36;195.88;;;22.75;;
28028;SDS011;15345;59.364;18.016;2024-01-30T03:51:55;168.95;;;21.70;;
28028;SDS011;15345;59.364;18.016;2024-01-30T03:53:13;242.50;;;23.33;;
28028;SDS011;15345;59.364;18.016;2024-01-30T03:54:32;358.33;;;32.55;;
28028;SDS011;15345;59.364;18.016;2024-01-30T03:55:51;434.35;;;34.70;;
28028;SDS011;15345;59.364;18.016;2024-01-30T03:57:11;171.18;;;21.15;;
28028;SDS011;15345;59.364;18.016;2024-01-30T03:58:30;205.85;;;22.67;;
28028;SDS011;15345;59.364;18.016;2024-01-30T03:59:49;329.55;;;28.05;;
28028;SDS011;15345;59.364;18.016;2024-01-30T04:01:07;228.25;;;22.77;;
28028;SDS011;15345;59.364;18.016;2024-01-30T04:02:26;239.65;;;23.55;;
28028;SDS011;15345;59.364;18.016;2024-01-30T04:03:45;206.68;;;22.27;;
28028;SDS011;15345;59.364;18.016;2024-01-30T04:05:04;326.95;;;27.92;;
28028;SDS011;15345;59.364;18.016;2024-01-30T04:06:23;263.73;;;23.52;;
28028;SDS011;15345;59.364;18.016;2024-01-30T04:07:44;108.75;;;16.85;;
28028;SDS011;15345;59.364;18.016;2024-01-30T04:09:03;121.35;;;17.45;;
28028;SDS011;15345;59.364;18.016;2024-01-30T04:10:22;81.03;;;16.95;;
28028;SDS011;15345;59.364;18.016;2024-01-30T04:11:41;173.02;;;21.05;;
28028;SDS011;15345;59.364;18.016;2024-01-30T04:13:00;265.85;;;24.48;;
28028;SDS011;15345;59.364;18.016;2024-01-30T04:14:19;352.27;;;29.80;;
28028;SDS011;15345;59.364;18.016;2024-01-30T04:15:38;306.55;;;29.05;;
28028;SDS011;15345;59.364;18.016;2024-01-30T04:16:58;214.35;;;22.33;;
28028;SDS011;15345;59.364;18.016;2024-01-30T04:18:17;223.05;;;22.13;;
28028;SDS011;15345;59.364;18.016;2024-01-30T04:19:39;104.35;;;18.05;;
28028;SDS011;15345;59.364;18.016;2024-01-30T04:20:58;346.75;;;30.67;;
28028;SDS011;15345;59.364;18.016;2024-01-30T04:22:17;85.22;;;17.95;;
28028;SDS011;15345;59.364;18.016;2024-01-30T04:23:36;82.25;;;16.70;;
28028;SDS011;15345;59.364;18.016;2024-01-30T04:24:55;82.78;;;16.27;;
28028;SDS011;15345;59.364;18.016;2024-01-30T04:26:14;85.03;;;16.75;;
28028;SDS011;15345;59.364;18.016;2024-01-30T04:27:33;90.07;;;17.77;;
28028;SDS011;15345;59.364;18.016;2024-01-30T04:28:51;87.75;;;16.67;;
28028;SDS011;15345;59.364;18.016;2024-01-30T04:30:11;88.82;;;17.17;;
28028;SDS011;15345;59.364;18.016;2024-01-30T04:31:30;86.03;;;15.07;;
28028;SDS011;15345;59.364;18.016;2024-01-30T04:32:49;112.43;;;18.00;;
28028;SDS011;15345;59.364;18.016;2024-01-30T04:34:08;73.97;;;16.13;;
28028;SDS011;15345;59.364;18.016;2024-01-30T04:35:27;82.20;;;16.58;;
28028;SDS011;15345;59.364;18.016;2024-01-30T04:36:46;156.85;;;19.73;;
28028;SDS011;15345;59.364;18.016;2024-01-30T04:38:05;151.80;;;19.00;;
28028;SDS011;15345;59.364;18.016;2024-01-30T04:39:24;57.13;;;14.30;;
28028;SDS011;15345;59.364;18.016;2024-01-30T04:40:43;56.20;;;15.15;;
28028;SDS011;15345;59.364;18.016;2024-01-30T04:42:02;54.50;;;15.65;;
28028;SDS011;15345;59.364;18.016;2024-01-30T04:43:21;50.33;;;15.15;;
28028;SDS011;15345;59.364;18.016;2024-01-30T04:44:40;69.30;;;15.48;;
28028;SDS011;15345;59.364;18.016;2024-01-30T04:45:59;44.28;;;14.65;;
28028;SDS011;15345;59.364;18.016;2024-01-30T04:47:18;73.50;;;15.65;;
28028;SDS011;15345;59.364;18.016;2024-01-30T04:48:37;71.53;;;14.70;;
28028;SDS011;15345;59.364;18.016;2024-01-30T04:49:56;51.92;;;13.90;;
28028;SDS011;15345;59.364;18.016;2024-01-30T04:51:14;71.00;;;15.50;;
28028;SDS011;15345;59.364;18.016;2024-01-30T04:52:34;55.80;;;15.20;;
28028;SDS011;15345;59.364;18.016;2024-01-30T04:53:53;92.40;;;15.73;;
28028;SDS011;15345;59.364;18.016;2024-01-30T04:55:11;102.55;;;15.50;;
28028;SDS011;15345;59.364;18.016;2024-01-30T04:56:30;54.45;;;14.70;;
28028;SDS011;15345;59.364;18.016;2024-01-30T04:57:50;55.30;;;14.85;;
28028;SDS011;15345;59.364;18.016;2024-01-30T04:59:09;35.80;;;13.50;;
28028;SDS011;15345;59.364;18.016;2024-01-30T05:00:28;38.83;;;13.95;;
28028;SDS011;15345;59.364;18.016;2024-01-30T05:01:47;54.97;;;14.43;;
28028;SDS011;15345;59.364;18.016;2024-01-30T05:03:06;51.42;;;14.70;;
28028;SDS011;15345;59.364;18.016;2024-01-30T05:04:25;40.28;;;14.43;;
28028;SDS011;15345;59.364;18.016;2024-01-30T05:05:44;37.88;;;13.45;;
28028;SDS011;15345;59.364;18.016;2024-01-30T05:07:03;45.95;;;15.05;;
28028;SDS011;15345;59.364;18.016;2024-01-30T05:08:22;44.60;;;13.52;;
28028;SDS011;15345;59.364;18.016;2024-01-30T05:09:41;44.63;;;13.80;;
28028;SDS011;15345;59.364;18.016;2024-01-30T05:11:00;67.80;;;14.27;;
28028;SDS011;15345;59.364;18.016;2024-01-30T05:12:19;51.65;;;14.10;;
28028;SDS011;15345;59.364;18.016;2024-01-30T05:13:38;38.55;;;14.45;;
28028;SDS011;15345;59.364;18.016;2024-01-30T05:14:56;47.67;;;13.10;;
28028;SDS011;15345;59.364;18.016;2024-01-30T05:16:15;36.15;;;12.93;;
28028;SDS011;15345;59.364;18.016;2024-01-30T05:17:34;42.95;;;13.43;;
28028;SDS011;15345;59.364;18.016;2024-01-30T05:18:53;45.00;;;12.90;;
28028;SDS011;15345;59.364;18.016;2024-01-30T05:20:12;57.45;;;13.70;;
28028;SDS011;15345;59.364;18.016;2024-01-30T05:21:31;59.08;;;13.65;;
28028;SDS011;15345;59.364;18.016;2024-01-30T05:22:50;60.78;;;13.88;;
28028;SDS011;15345;59.364;18.016;2024-01-30T05:24:09;58.72;;;13.43;;
28028;SDS011;15345;59.364;18.016;2024-01-30T05:25:29;43.35;;;13.43;;
28028;SDS011;15345;59.364;18.016;2024-01-30T05:26:48;54.25;;;12.40;;
28028;SDS011;15345;59.364;18.016;2024-01-30T05:28:07;40.85;;;12.70;;
28028;SDS011;15345;59.364;18.016;2024-01-30T05:29:26;47.17;;;12.15;;
28028;SDS011;15345;59.364;18.016;2024-01-30T05:30:45;61.13;;;12.18;;
28028;SDS011;15345;59.364;18.016;2024-01-30T05:32:04;35.70;;;11.75;;
28028;SDS011;15345;59.364;18.016;2024-01-30T05:33:24;46.35;;;12.15;;
28028;SDS011;15345;59.364;18.016;2024-01-30T05:34:43;51.05;;;11.93;;
28028;SDS011;15345;59.364;18.016;2024-01-30T05:36:04;53.10;;;12.02;;
28028;SDS011;15345;59.364;18.016;2024-01-30T05:37:23;37.00;;;11.52;;
28028;SDS011;15345;59.364;18.016;2024-01-30T05:38:42;54.92;;;12.90;;
28028;SDS011;15345;59.364;18.016;2024-01-30T05:40:04;38.45;;;11.63;;
28028;SDS011;15345;59.364;18.016;2024-01-30T05:41:24;33.15;;;11.25;;
28028;SDS011;15345;59.364;18.016;2024-01-30T05:42:42;38.90;;;12.60;;
28028;SDS011;15345;59.364;18.016;2024-01-30T05:44:03;31.75;;;12.00;;
28028;SDS011;15345;59.364;18.016;2024-01-30T05:45:22;29.25;;;11.68;;
28028;SDS011;15345;59.364;18.016;2024-01-30T05:46:42;22.58;;;10.68;;
28028;SDS011;15345;59.364;18.016;2024-01-30T05:48:00;24.35;;;11.60;;
28028;SDS011;15345;59.364;18.016;2024-01-30T05:49:19;19.75;;;11.23;;
28028;SDS011;15345;59.364;18.016;2024-01-30T05:50:38;20.85;;;10.30;;
28028;SDS011;15345;59.364;18.016;2024-01-30T05:51:57;17.05;;;10.63;;
28028;SDS011;15345;59.364;18.016;2024-01-30T05:53:16;22.27;;;12.23;;
28028;SDS011;15345;59.364;18.016;2024-01-30T05:54:35;20.08;;;11.13;;
28028;SDS011;15345;59.364;18.016;2024-01-30T05:55:54;18.30;;;11.32;;
28028;SDS011;15345;59.364;18.016;2024-01-30T05:57:13;18.60;;;10.55;;
28028;SDS011;15345;59.364;18.016;2024-01-30T05:58:32;20.30;;;11.48;;
28028;SDS011;15345;59.364;18.016;2024-01-30T05:59:51;21.20;;;10.98;;
28028;SDS011;15345;59.364;18.016;2024-01-30T06:01:10;21.38;;;11.35;;
28028;SDS011;15345;59.364;18.016;2024-01-30T06:02:29;20.15;;;10.68;;
28028;SDS011;15345;59.364;18.016;2024-01-30T06:03:48;20.83;;;11.38;;
28028;SDS011;15345;59.364;18.016;2024-01-30T06:05:07;23.75;;;11.55;;
28028;SDS011;15345;59.364;18.016;2024-01-30T06:06:27;21.77;;;11.20;;
28028;SDS011;15345;59.364;18.016;2024-01-30T06:07:47;20.33;;;11.43;;
28028;SDS011;15345;59.364;18.016;2024-01-30T06:09:06;18.50;;;10.85;;
28028;SDS011;15345;59.364;18.016;2024-01-30T06:10:27;20.63;;;10.68;;
28028;SDS011;15345;59.364;18.016;2024-01-30T06:11:46;19.75;;;10.90;;
28028;SDS011;15345;59.364;18.016;2024-01-30T06:13:05;19.67;;;11.20;;
28028;SDS011;15345;59.364;18.016;2024-01-30T06:14:24;20.00;;;11.15;;
28028;SDS011;15345;59.364;18.016;2024-01-30T06:15:43;19.98;;;10.75;;
28028;SDS011;15345;59.364;18.016;2024-01-30T06:17:02;22.88;;;10.82;;
28028;SDS011;15345;59.364;18.016;2024-01-30T06:18:21;17.50;;;9.63;;
28028;SDS011;15345;59.364;18.016;2024-01-30T06:19:40;19.27;;;10.45;;
28028;SDS011;15345;59.364;18.016;2024-01-30T06:21:01;19.00;;;10.55;;
28028;SDS011;15345;59.364;18.016;2024-01-30T06:22:20;18.65;;;10.43;;
28028;SDS011;15345;59.364;18.016;2024-01-30T06:23:38;22.00;;;10.82;;
28028;SDS011;15345;59.364;18.016;2024-01-30T06:24:57;21.67;;;11.50;;
28028;SDS011;15345;59.364;18.016;2024-01-30T06:26:16;19.17;;;10.57;;
28028;SDS011;15345;59.364;18.016;2024-01-30T06:27:35;18.90;;;9.55;;
28028;SDS011;15345;59.364;18.016;2024-01-30T06:28:54;21.73;;;10.48;;
28028;SDS011;15345;59.364;18.016;2024-01-30T06:30:13;18.27;;;10.23;;
28028;SDS011;15345;59.364;18.016;2024-01-30T06:31:33;18.42;;;10.20;;
28028;SDS011;15345;59.364;18.016;2024-01-30T06:32:52;17.27;;;9.80;;
28028;SDS011;15345;59.364;18.016;2024-01-30T06:34:11;17.02;;;10.00;;
28028;SDS011;15345;59.364;18.016;2024-01-30T06:35:31;19.02;;;10.20;;
28028;SDS011;15345;59.364;18.016;2024-01-30T06:36:50;19.10;;;10.20;;
28028;SDS011;15345;59.364;18.016;2024-01-30T06:38:08;17.95;;;10.40;;
28028;SDS011;15345;59.364;18.016;2024-01-30T06:39:29;19.77;;;10.18;;
28028;SDS011;15345;59.364;18.016;2024-01-30T06:40:48;15.65;;;9.50;;
28028;SDS011;15345;59.364;18.016;2024-01-30T06:42:07;16.58;;;9.63;;
28028;SDS011;15345;59.364;18.016;2024-01-30T06:43:26;21.75;;;10.75;;
28028;SDS011;15345;59.364;18.016;2024-01-30T06:44:45;17.33;;;10.50;;
28028;SDS011;15345;59.364;18.016;2024-01-30T06:46:03;16.02;;;9.63;;
28028;SDS011;15345;59.364;18.016;2024-01-30T06:47:22;19.73;;;10.52;;
28028;SDS011;15345;59.364;18.016;2024-01-30T06:48:41;21.88;;;11.25;;
28028;SDS011;15345;59.364;18.016;2024-01-30T06:50:03;16.50;;;10.05;;
28028;SDS011;15345;59.364;18.016;2024-01-30T06:51:22;22.17;;;11.10;;
28028;SDS011;15345;59.364;18.016;2024-01-30T06:52:41;22.02;;;11.13;;
28028;SDS011;15345;59.364;18.016;2024-01-30T06:54:00;18.35;;;10.27;;
28028;SDS011;15345;59.364;18.016;2024-01-30T06:55:20;21.42;;;10.70;;
28028;SDS011;15345;59.364;18.016;2024-01-30T06:56:39;21.95;;;11.15;;
28028;SDS011;15345;59.364;18.016;2024-01-30T06:57:58;19.90;;;11.07;;
28028;SDS011;15345;59.364;18.016;2024-01-30T06:59:17;25.55;;;11.75;;
28028;SDS011;15345;59.364;18.016;2024-01-30T07:00:36;22.35;;;10.85;;
28028;SDS011;15345;59.364;18.016;2024-01-30T07:01:55;20.30;;;10.63;;
28028;SDS011;15345;59.364;18.016;2024-01-30T07:03:14;24.15;;;11.52;;
28028;SDS011;15345;59.364;18.016;2024-01-30T07:04:33;22.25;;;12.07;;
28028;SDS011;15345;59.364;18.016;2024-01-30T07:05:52;20.70;;;11.52;;
28028;SDS011;15345;59.364;18.016;2024-01-30T07:07:13;23.35;;;11.88;;
28028;SDS011;15345;59.364;18.016;2024-01-30T07:08:33;25.67;;;12.25;;
28028;SDS011;15345;59.364;18.016;2024-01-30T07:09:52;22.52;;;10.82;;
28028;SDS011;15345;59.364;18.016;2024-01-30T07:11:18;28.08;;;11.48;;
28028;SDS011;15345;59.364;18.016;2024-01-30T07:12:38;25.10;;;11.88;;
28028;SDS011;15345;59.364;18.016;2024-01-30T07:13:57;22.98;;;11.35;;
28028;SDS011;15345;59.364;18.016;2024-01-30T07:15:16;25.67;;;12.63;;
28028;SDS011;15345;59.364;18.016;2024-01-30T07:16:38;32.47;;;13.73;;
28028;SDS011;15345;59.364;18.016;2024-01-30T07:17:58;26.35;;;12.52;;
28028;SDS011;15345;59.364;18.016;2024-01-30T07:19:17;28.98;;;13.05;;
28028;SDS011;15345;59.364;18.016;2024-01-30T07:20:36;23.63;;;12.15;;
28028;SDS011;15345;59.364;18.016;2024-01-30T07:21:55;24.08;;;11.57;;
28028;SDS011;15345;59.364;18.016;2024-01-30T07:23:16;26.90;;;13.10;;
28028;SDS011;15345;59.364;18.016;2024-01-30T07:24:36;32.63;;;13.02;;
28028;SDS011;15345;59.364;18.016;2024-01-30T07:25:56;25.40;;;12.95;;
28028;SDS011;15345;59.364;18.016;2024-01-30T07:27:15;25.00;;;11.63;;
28028;SDS011;15345;59.364;18.016;2024-01-30T07:28:36;28.83;;;14.23;;
28028;SDS011;15345;59.364;18.016;2024-01-30T07:29:55;30.67;;;12.55;;
28028;SDS011;15345;59.364;18.016;2024-01-30T07:31:14;25.38;;;12.75;;
28028;SDS011;15345;59.364;18.016;2024-01-30T07:32:33;34.15;;;13.93;;
28028;SDS011;15345;59.364;18.016;2024-01-30T07:33:52;34.22;;;14.25;;
28028;SDS011;15345;59.364;18.016;2024-01-30T07:35:11;30.58;;;11.77;;